createdAt,value
2017-10-17T00:00:06.766Z,9.30
2017-10-17T00:02:34.294Z,8.77
2017-10-17T00:05:01.738Z,9.40
2017-10-17T00:07:29.268Z,9.35
2017-10-17T00:09:57.517Z,8.35
2017-10-17T00:12:25.146Z,8.77
2017-10-17T00:14:52.654Z,8.50
2017-10-17T00:17:20.194Z,9.98
2017-10-17T00:19:47.757Z,9.00
2017-10-17T00:22:15.224Z,8.25
2017-10-17T00:24:42.787Z,8.77
2017-10-17T00:27:10.234Z,7.90
2017-10-17T00:29:37.694Z,8.00
2017-10-17T00:32:05.160Z,9.32
2017-10-17T00:34:34.142Z,9.38
2017-10-17T00:37:02.357Z,8.45
2017-10-17T00:39:29.874Z,9.20
2017-10-17T00:41:57.429Z,9.38
2017-10-17T00:44:24.885Z,8.80
2017-10-17T00:46:52.346Z,9.50
2017-10-17T00:49:19.820Z,9.55
2017-10-17T00:51:47.471Z,8.43
2017-10-17T00:54:15.030Z,9.10
2017-10-17T00:56:43.281Z,9.38
2017-10-17T00:59:10.753Z,9.60
2017-10-17T01:01:38.203Z,8.90
2017-10-17T01:04:05.662Z,8.93
2017-10-17T01:06:33.123Z,8.95
2017-10-17T01:09:00.594Z,9.27
2017-10-17T02:14:45.555Z,8.43
2017-10-17T02:17:13.049Z,8.43
2017-10-17T02:19:40.594Z,8.70
2017-10-17T02:22:10.171Z,8.85
2017-10-17T02:24:42.639Z,9.40
2017-10-17T02:27:10.151Z,8.60
2017-10-17T02:29:39.503Z,8.93
2017-10-17T02:32:07.003Z,8.30
2017-10-17T02:34:46.234Z,7.95
2017-10-17T02:37:13.789Z,9.25
2017-10-17T02:39:41.353Z,9.00
2017-10-17T02:42:08.810Z,7.95
2017-10-17T02:44:36.269Z,9.38
2017-10-17T02:47:03.825Z,8.70
2017-10-17T02:49:34.065Z,9.43
2017-10-17T02:52:01.510Z,8.02
2017-10-17T02:54:29.027Z,8.25
2017-10-17T02:56:56.522Z,9.80
2017-10-17T02:59:24.077Z,8.27
2017-10-17T03:01:51.527Z,8.68
2017-10-17T03:04:25.546Z,8.73
2017-10-17T03:06:53.008Z,8.43
2017-10-17T03:09:20.570Z,7.53
2017-10-17T03:11:48.041Z,8.70
2017-10-17T03:14:16.357Z,8.15
2017-10-17T03:16:43.824Z,7.82
2017-10-17T03:19:11.316Z,8.38
2017-10-17T03:21:56.177Z,8.98
2017-10-17T03:24:31.287Z,8.45
2017-10-17T03:26:58.792Z,8.75
2017-10-17T03:29:26.338Z,8.05
2017-10-17T03:31:53.803Z,8.98
2017-10-17T03:34:21.363Z,11.27
2017-10-17T03:36:55.235Z,8.90
2017-10-17T03:39:23.499Z,8.00
2017-10-17T03:41:52.635Z,7.62
2017-10-17T03:44:36.887Z,8.98
2017-10-17T03:47:05.327Z,8.80
2017-10-17T03:49:38.457Z,7.57
2017-10-17T03:52:09.626Z,7.35
2017-10-17T03:54:37.883Z,8.80
2017-10-17T03:57:06.791Z,8.80
2017-10-17T03:59:50.982Z,8.25
2017-10-17T04:02:18.436Z,7.70
2017-10-17T04:04:51.460Z,8.90
2017-10-17T04:10:20.074Z,8.68
2017-10-17T04:13:07.270Z,8.00
2017-10-17T04:15:34.750Z,8.57
2017-10-17T04:18:21.013Z,8.57
2017-10-17T04:20:48.502Z,8.82
2017-10-17T04:23:22.409Z,8.45
2017-10-17T04:25:52.430Z,9.02
2017-10-17T04:28:26.326Z,7.70
2017-10-17T04:31:03.683Z,8.45
2017-10-17T04:36:40.954Z,8.32
2017-10-17T04:39:08.452Z,8.80
2017-10-17T04:41:55.118Z,9.10
2017-10-17T04:47:43.926Z,9.10
2017-10-17T04:50:32.853Z,9.25
2017-10-17T04:56:23.453Z,7.97
2017-10-17T05:01:56.838Z,9.27
2017-10-17T05:04:41.127Z,8.93
2017-10-17T05:07:12.074Z,9.75
2017-10-17T05:09:41.357Z,9.80
2017-10-17T05:12:08.926Z,9.48
2017-10-17T05:14:42.423Z,8.82
2017-10-17T05:17:21.553Z,9.45
2017-10-17T05:20:00.890Z,10.00
2017-10-17T05:22:44.690Z,8.93
2017-10-17T05:25:21.837Z,8.57
2017-10-17T05:30:49.701Z,9.07
2017-10-17T05:33:29.242Z,9.65
2017-10-17T05:35:56.702Z,8.77
2017-10-17T05:38:24.258Z,10.57
2017-10-17T05:40:51.701Z,9.77
2017-10-17T05:43:35.529Z,9.57
2017-10-17T05:46:03.066Z,9.63
2017-10-17T05:48:31.257Z,9.73
2017-10-17T05:51:01.182Z,9.13
2017-10-17T05:53:28.727Z,9.05
2017-10-17T05:55:56.499Z,9.07
2017-10-17T05:58:23.978Z,10.00
2017-10-17T06:00:51.430Z,9.05
2017-10-17T06:03:19.686Z,8.93
2017-10-17T06:05:47.125Z,9.88
2017-10-17T06:08:14.601Z,9.27
2017-10-17T06:10:42.050Z,8.77
2017-10-17T06:13:09.506Z,8.20
2017-10-17T06:15:37.130Z,8.85
2017-10-17T06:18:05.355Z,7.80
2017-10-17T06:20:32.843Z,8.52
2017-10-17T06:23:00.397Z,8.32
2017-10-17T06:25:27.858Z,7.60
2017-10-17T06:27:55.312Z,6.90
2017-10-17T06:30:22.770Z,7.40
2017-10-17T06:32:50.329Z,6.80
2017-10-17T06:35:17.890Z,7.45
2017-10-17T06:37:45.368Z,6.35
2017-10-17T06:40:13.590Z,7.30
2017-10-17T06:42:41.100Z,6.82
2017-10-17T06:45:08.657Z,7.50
2017-10-17T06:47:36.116Z,6.95
2017-10-17T06:50:03.578Z,6.15
2017-10-17T06:52:31.842Z,7.05
2017-10-17T06:54:59.297Z,6.65
2017-10-17T06:57:26.760Z,8.38
2017-10-17T06:59:54.367Z,6.30
2017-10-17T07:02:21.823Z,8.52
2017-10-17T07:04:49.274Z,6.03
2017-10-17T07:07:16.776Z,6.53
2017-10-17T07:09:44.280Z,6.50
2017-10-17T07:12:11.799Z,7.18
2017-10-17T07:14:39.259Z,7.12
2017-10-17T07:17:06.732Z,7.05
2017-10-17T07:19:34.990Z,6.28
2017-10-17T07:22:02.547Z,6.85
2017-10-17T07:24:30.014Z,6.90
2017-10-17T07:26:57.474Z,5.93
2017-10-17T07:29:25.053Z,5.78
2017-10-17T07:31:53.294Z,6.00
2017-10-17T07:34:20.767Z,5.70
2017-10-17T07:36:48.319Z,5.93
2017-10-17T07:39:16.574Z,5.22
2017-10-17T07:41:44.078Z,5.10
2017-10-17T07:44:11.536Z,5.20
2017-10-17T07:46:39.786Z,5.75
2017-10-17T07:49:07.345Z,5.93
2017-10-17T07:51:34.901Z,5.40
2017-10-17T07:54:02.421Z,5.20
2017-10-17T07:56:29.916Z,4.53
2017-10-17T07:58:57.423Z,5.50
2017-10-17T08:01:24.878Z,4.78
2017-10-17T08:03:52.355Z,4.70
2017-10-17T08:06:19.829Z,4.93
2017-10-17T08:08:47.320Z,5.15
2017-10-17T08:11:14.858Z,4.95
2017-10-17T08:13:42.429Z,5.30
2017-10-17T08:16:09.986Z,5.00
2017-10-17T08:18:37.459Z,5.00
2017-10-17T08:21:05.720Z,5.10
2017-10-17T08:23:33.279Z,5.18
2017-10-17T08:26:00.765Z,5.15
2017-10-17T08:28:29.035Z,6.60
2017-10-17T08:30:57.289Z,5.18
2017-10-17T08:33:24.761Z,4.35
2017-10-17T08:35:52.994Z,4.93
2017-10-17T08:38:20.461Z,4.65
2017-10-17T08:40:47.946Z,4.60
2017-10-17T08:43:15.401Z,4.32
2017-10-17T08:45:43.657Z,5.65
2017-10-17T08:48:11.119Z,4.50
2017-10-17T08:50:38.578Z,4.03
2017-10-17T08:53:06.066Z,3.90
2017-10-17T08:55:34.309Z,7.13
2017-10-17T08:58:01.755Z,5.70
2017-10-17T09:00:29.242Z,5.23
2017-10-17T09:02:56.713Z,5.40
2017-10-17T09:05:24.178Z,5.40
2017-10-17T09:07:52.414Z,4.70
2017-10-17T09:10:19.890Z,5.10
2017-10-17T09:12:47.442Z,7.17
2017-10-17T09:15:14.892Z,4.20
2017-10-17T09:17:42.355Z,5.20
2017-10-17T09:20:09.877Z,4.93
2017-10-17T09:22:37.335Z,4.57
2017-10-17T09:25:04.797Z,4.77
2017-10-17T09:27:32.254Z,4.40
2017-10-17T09:29:59.756Z,4.40
2017-10-17T09:32:27.298Z,5.03
2017-10-17T09:34:54.777Z,5.27
2017-10-17T09:37:23.000Z,9.60
2017-10-17T09:39:50.537Z,6.20
2017-10-17T09:42:18.347Z,5.90
2017-10-17T09:44:45.924Z,5.37
2017-10-17T09:47:13.488Z,5.23
2017-10-17T09:49:41.031Z,4.63
2017-10-17T09:52:08.598Z,5.47
2017-10-17T09:54:36.063Z,5.00
2017-10-17T09:57:03.572Z,4.87
2017-10-17T09:59:31.069Z,5.23
2017-10-17T10:01:58.578Z,5.37
2017-10-17T10:04:26.026Z,4.63
2017-10-17T10:06:54.255Z,4.60
2017-10-17T10:09:21.714Z,4.90
2017-10-17T10:11:49.274Z,5.83
2017-10-17T10:14:16.739Z,4.83
2017-10-17T10:16:44.224Z,5.27
2017-10-17T10:19:11.679Z,7.83
2017-10-17T10:21:39.909Z,5.23
2017-10-17T10:24:07.357Z,5.50
2017-10-17T10:26:34.835Z,7.43
2017-10-17T10:29:02.300Z,4.67
2017-10-17T10:31:29.761Z,5.30
2017-10-17T10:33:57.317Z,5.43
2017-10-17T10:36:24.765Z,5.13
2017-10-17T10:38:52.230Z,5.50
2017-10-17T10:41:20.680Z,5.13
2017-10-17T10:43:48.165Z,5.77
2017-10-17T10:46:15.644Z,6.07
2017-10-17T10:48:43.862Z,5.97
2017-10-17T10:51:11.319Z,4.97
2017-10-17T10:53:38.782Z,6.00
2017-10-17T10:56:06.251Z,4.60
2017-10-17T10:58:33.710Z,5.53
2017-10-17T11:01:01.171Z,5.77
2017-10-17T11:03:28.637Z,5.40
2017-10-17T11:05:56.107Z,5.13
2017-10-17T11:08:23.593Z,5.37
2017-10-17T11:10:51.847Z,5.67
2017-10-17T11:13:19.315Z,5.77
2017-10-17T11:15:46.850Z,5.57
2017-10-17T11:18:14.332Z,4.63
2017-10-17T11:20:41.794Z,5.60
2017-10-17T11:23:10.057Z,5.20
2017-10-17T11:25:37.610Z,5.07
2017-10-17T11:28:05.070Z,5.57
2017-10-17T11:30:32.530Z,5.00
2017-10-17T11:32:59.978Z,5.50
2017-10-17T11:35:27.431Z,5.30
2017-10-17T11:37:54.924Z,5.20
2017-10-17T11:40:35.132Z,4.57
2017-10-17T11:43:14.704Z,4.90
2017-10-17T11:45:42.172Z,4.40
2017-10-17T11:48:10.430Z,5.20
2017-10-17T11:50:37.891Z,4.50
2017-10-17T11:53:05.346Z,4.57
2017-10-17T11:55:32.810Z,4.90
2017-10-17T11:58:00.260Z,4.07
2017-10-17T12:00:27.723Z,3.87
2017-10-17T12:02:55.334Z,4.67
2017-10-17T12:05:22.787Z,4.57
2017-10-17T12:07:50.254Z,5.47
2017-10-17T12:10:17.807Z,4.20
2017-10-17T12:12:45.363Z,4.23
2017-10-17T12:15:13.884Z,4.03
2017-10-17T12:17:41.446Z,3.53
2017-10-17T12:20:08.906Z,4.93
2017-10-17T12:22:36.419Z,4.10
2017-10-17T12:25:03.879Z,4.17
2017-10-17T12:27:31.394Z,4.20
2017-10-17T12:29:59.618Z,3.80
2017-10-17T12:32:27.077Z,3.90
2017-10-17T12:34:54.534Z,4.13
2017-10-17T12:37:22.187Z,4.53
2017-10-17T12:39:50.001Z,3.80
2017-10-17T12:42:17.666Z,4.13
2017-10-17T12:44:45.890Z,4.00
2017-10-17T12:47:13.457Z,4.37
2017-10-17T12:49:40.919Z,4.10
2017-10-17T12:52:08.364Z,3.87
2017-10-17T12:54:35.864Z,3.83
2017-10-17T12:57:03.308Z,3.87
2017-10-17T12:59:30.768Z,4.60
2017-10-17T13:01:58.218Z,4.13
2017-10-17T13:04:25.687Z,3.90
2017-10-17T13:06:53.136Z,4.13
2017-10-17T13:09:20.770Z,3.60
2017-10-17T13:11:48.230Z,3.70
2017-10-17T13:14:15.690Z,3.70
2017-10-17T13:16:43.154Z,3.90
2017-10-17T13:19:10.610Z,4.50
2017-10-17T13:21:38.158Z,4.40
2017-10-17T13:24:05.615Z,4.93
2017-10-17T13:26:33.122Z,4.27
2017-10-17T13:29:00.590Z,4.47
2017-10-17T13:31:28.954Z,4.73
2017-10-17T13:33:56.405Z,4.40
2017-10-17T13:36:23.962Z,5.80
2017-10-17T13:38:51.426Z,4.37
2017-10-17T13:41:18.909Z,5.70
2017-10-17T13:43:47.164Z,5.33
2017-10-17T13:46:14.783Z,4.67
2017-10-17T13:48:42.264Z,5.03
2017-10-17T13:51:09.720Z,4.77
2017-10-17T13:53:37.186Z,4.60
2017-10-17T13:56:04.642Z,4.90
2017-10-17T13:58:32.144Z,5.13
2017-10-17T14:00:59.621Z,5.00
2017-10-17T14:03:27.084Z,4.47
2017-10-17T14:05:54.540Z,5.37
2017-10-17T14:08:21.998Z,5.00
2017-10-17T14:10:49.463Z,5.37
2017-10-17T14:13:16.959Z,4.90
2017-10-17T14:15:44.430Z,4.77
2017-10-17T14:18:12.744Z,5.10
2017-10-17T14:20:40.306Z,4.83
2017-10-17T14:23:07.758Z,6.10
2017-10-17T14:25:35.262Z,5.63
2017-10-17T14:28:02.778Z,5.30
2017-10-17T14:30:30.227Z,5.10
2017-10-17T14:32:57.744Z,4.70
2017-10-17T14:35:25.258Z,5.00
2017-10-17T14:37:52.811Z,5.47
2017-10-17T14:40:20.371Z,6.50
2017-10-17T14:42:47.835Z,6.37
2017-10-17T14:45:15.285Z,5.17
2017-10-17T14:50:45.898Z,5.80
2017-10-17T14:53:13.475Z,6.43
2017-10-17T14:55:41.124Z,6.40
2017-10-17T14:58:08.566Z,5.67
2017-10-17T15:00:36.102Z,6.83
2017-10-17T15:03:03.662Z,6.40
2017-10-17T15:05:31.191Z,6.50
2017-10-17T15:07:59.406Z,6.33
2017-10-17T15:10:26.956Z,6.50
2017-10-17T15:12:54.405Z,7.20
2017-10-17T15:15:21.906Z,5.73
2017-10-17T15:17:49.371Z,6.70
2017-10-17T15:20:16.839Z,6.40
2017-10-17T15:22:44.342Z,7.00
2017-10-17T15:25:11.791Z,7.43
2017-10-17T15:27:39.337Z,6.40
2017-10-17T15:30:07.566Z,6.77
2017-10-17T15:32:35.046Z,6.80
2017-10-17T15:35:02.507Z,6.50
2017-10-17T15:37:30.042Z,6.10
2017-10-17T15:39:57.497Z,6.47
2017-10-17T15:42:24.970Z,6.50
2017-10-17T15:44:52.442Z,7.53
2017-10-17T15:47:19.897Z,7.77
2017-10-17T15:49:48.150Z,6.63
2017-10-17T15:52:15.621Z,8.20
2017-10-17T15:54:43.143Z,6.50
2017-10-17T15:57:10.596Z,7.70
2017-10-17T15:59:38.053Z,7.43
2017-10-17T16:02:05.570Z,6.87
2017-10-17T16:04:33.806Z,6.80
2017-10-17T16:07:01.268Z,7.53
2017-10-17T16:09:28.859Z,7.07
2017-10-17T16:11:57.152Z,6.83
2017-10-17T16:14:24.652Z,6.67
2017-10-17T16:16:52.157Z,6.50
2017-10-17T16:19:20.389Z,7.07
2017-10-17T16:21:47.849Z,7.40
2017-10-17T16:24:15.381Z,7.00
2017-10-17T16:26:42.832Z,7.30
2017-10-17T16:29:10.318Z,7.65
2017-10-17T16:31:37.781Z,6.93
2017-10-17T16:34:05.242Z,7.00
2017-10-17T16:36:32.707Z,7.67
2017-10-17T16:39:00.283Z,7.60
2017-10-17T16:41:28.568Z,7.63
2017-10-17T16:43:56.030Z,8.07
2017-10-17T16:46:24.273Z,8.70
2017-10-17T16:48:51.727Z,8.10
2017-10-17T16:51:19.211Z,8.63
2017-10-17T16:53:47.452Z,7.93
2017-10-17T16:56:14.937Z,9.00
2017-10-17T16:58:42.547Z,8.73
2017-10-17T17:01:10.022Z,8.77
2017-10-17T17:03:37.486Z,8.85
2017-10-17T17:06:05.119Z,8.93
2017-10-17T17:08:32.594Z,9.25
2017-10-17T17:11:00.094Z,9.27
2017-10-17T17:13:28.350Z,9.30
2017-10-17T17:15:55.888Z,10.13
2017-10-17T17:18:23.356Z,9.82
2017-10-17T17:20:50.853Z,9.73
2017-10-17T17:23:19.168Z,11.00
2017-10-17T17:25:46.626Z,9.23
2017-10-17T17:28:14.097Z,9.20
2017-10-17T17:30:41.611Z,10.00
2017-10-17T17:33:09.196Z,9.52
2017-10-17T17:35:36.697Z,10.85
2017-10-17T17:38:04.208Z,11.70
2017-10-17T17:40:31.688Z,11.25
2017-10-17T17:42:59.231Z,13.55
2017-10-17T17:45:26.694Z,13.30
2017-10-17T17:47:54.222Z,11.20
2017-10-17T17:50:21.711Z,12.27
2017-10-17T17:52:49.227Z,12.75
2017-10-17T17:55:16.785Z,12.15
2017-10-17T17:57:44.318Z,11.27
2017-10-17T18:00:11.798Z,12.07
2017-10-17T18:02:39.374Z,12.65
2017-10-17T18:05:06.928Z,13.02
2017-10-17T18:07:35.293Z,14.13
2017-10-17T18:10:04.812Z,16.05
2017-10-17T18:12:32.294Z,16.42
2017-10-17T18:14:59.754Z,16.55
2017-10-17T18:17:27.218Z,15.88
2017-10-17T18:19:54.683Z,16.80
2017-10-17T18:22:22.183Z,17.60
2017-10-17T18:24:49.673Z,19.15
2017-10-17T18:27:18.000Z,20.27
2017-10-17T18:29:45.629Z,17.15
2017-10-17T18:32:13.143Z,17.20
2017-10-17T18:34:40.874Z,18.15
2017-10-17T18:37:09.231Z,21.80
2017-10-17T18:39:36.710Z,15.88
2017-10-17T18:42:04.177Z,16.02
2017-10-17T18:44:31.645Z,16.67
2017-10-17T18:46:59.182Z,15.85
2017-10-17T18:49:26.667Z,13.30
2017-10-17T18:51:54.212Z,13.30
2017-10-17T18:54:21.692Z,15.48
2017-10-17T18:56:49.348Z,17.77
2017-10-17T18:59:16.829Z,15.35
2017-10-17T19:01:45.061Z,16.42
2017-10-17T19:04:12.525Z,14.43
2017-10-17T19:06:40.004Z,12.07
2017-10-17T19:09:07.632Z,12.50
2017-10-17T19:11:35.098Z,15.30
2017-10-17T19:14:02.698Z,14.75
2017-10-17T19:16:30.942Z,11.43
2017-10-17T19:18:58.415Z,12.45
2017-10-17T19:21:26.638Z,11.18
2017-10-17T19:23:54.193Z,10.82
2017-10-17T19:26:21.665Z,11.05
2017-10-17T19:28:49.129Z,11.32
2017-10-17T19:31:16.610Z,12.07
2017-10-17T19:33:44.063Z,12.30
2017-10-17T19:36:11.537Z,11.68
2017-10-17T19:38:38.991Z,11.12
2017-10-17T19:41:06.494Z,10.45
2017-10-17T19:43:33.953Z,11.70
2017-10-17T19:46:01.453Z,10.48
2017-10-17T19:48:28.915Z,12.60
2017-10-17T19:50:56.409Z,10.57
2017-10-17T19:53:23.881Z,10.60
2017-10-17T19:55:51.388Z,10.80
2017-10-17T19:58:18.878Z,10.57
2017-10-17T20:00:46.379Z,11.43
2017-10-17T20:03:13.919Z,17.75
2017-10-17T20:05:41.386Z,10.90
2017-10-17T20:08:08.894Z,11.52
2017-10-17T20:10:36.340Z,10.93
2017-10-17T20:13:03.900Z,9.70
2017-10-17T20:15:31.453Z,10.57
2017-10-17T20:17:58.952Z,11.05
2017-10-17T20:20:26.458Z,10.98
2017-10-17T20:22:53.944Z,10.00
2017-10-17T20:25:22.186Z,10.40
2017-10-17T20:27:49.658Z,9.80
2017-10-17T20:30:17.129Z,11.40
2017-10-17T20:32:45.362Z,9.48
2017-10-17T20:35:12.867Z,10.68
2017-10-17T20:37:41.121Z,10.05
2017-10-17T20:40:08.695Z,11.27
2017-10-17T20:42:36.304Z,10.40
2017-10-17T20:45:03.771Z,11.70
2017-10-17T20:47:31.237Z,11.10
2017-10-17T20:49:58.694Z,12.45
2017-10-17T20:52:26.176Z,13.80
2017-10-17T20:54:53.651Z,18.73
2017-10-17T20:57:21.904Z,12.32
2017-10-17T20:59:49.365Z,15.10
2017-10-17T21:02:16.838Z,13.45
2017-10-17T21:04:44.382Z,12.75
2017-10-17T21:07:11.944Z,13.75
2017-10-17T21:09:39.410Z,13.75
2017-10-17T21:12:06.919Z,14.05
2017-10-17T21:14:34.402Z,13.48
2017-10-17T21:17:01.861Z,13.38
2017-10-17T21:19:29.321Z,16.08
2017-10-17T21:21:56.801Z,13.75
2017-10-17T21:24:24.313Z,13.75
2017-10-17T21:26:51.782Z,13.93
2017-10-17T21:29:19.257Z,14.93
2017-10-17T21:31:46.788Z,16.52
2017-10-17T21:34:14.258Z,15.45
2017-10-17T21:36:41.722Z,13.88
2017-10-17T21:39:09.216Z,14.50
2017-10-17T21:41:37.450Z,13.80
2017-10-17T21:44:05.071Z,13.70
2017-10-17T21:46:32.603Z,13.73
2017-10-17T21:49:00.053Z,15.05
2017-10-17T21:51:27.521Z,17.00
2017-10-17T21:53:55.060Z,16.90
2017-10-17T21:56:22.854Z,14.20
2017-10-17T21:58:51.129Z,13.43
2017-10-17T22:01:19.371Z,14.05
2017-10-17T22:03:46.969Z,13.45
2017-10-17T22:06:15.311Z,14.87
2017-10-17T22:08:42.801Z,13.73
2017-10-17T22:11:11.039Z,14.85
2017-10-17T22:13:38.611Z,14.63
2017-10-17T22:16:06.082Z,12.23
2017-10-17T22:18:33.631Z,13.13
2017-10-17T22:21:01.144Z,13.60
2017-10-17T22:23:28.659Z,13.55
2017-10-17T22:25:56.260Z,13.18
2017-10-17T22:28:23.880Z,15.50
2017-10-17T22:30:51.382Z,14.00
2017-10-17T22:33:18.930Z,13.55
2017-10-17T22:35:46.379Z,14.30
2017-10-17T22:38:13.909Z,14.27
2017-10-17T22:40:41.442Z,13.00
2017-10-17T22:43:08.914Z,13.98
2017-10-17T22:45:36.364Z,13.07
2017-10-17T22:48:03.994Z,14.27
2017-10-17T22:50:31.504Z,13.38
2017-10-17T22:52:59.005Z,13.90
2017-10-17T22:55:26.575Z,14.55
2017-10-17T22:57:54.136Z,13.07
2017-10-17T23:00:21.621Z,13.27
2017-10-17T23:02:49.251Z,12.27
2017-10-17T23:05:16.715Z,12.65
2017-10-17T23:07:44.170Z,14.15
2017-10-17T23:10:11.671Z,15.13
2017-10-17T23:12:39.121Z,13.60
2017-10-17T23:15:06.570Z,13.35
2017-10-17T23:17:45.886Z,11.77
2017-10-17T23:20:25.429Z,13.45
2017-10-17T23:22:52.953Z,10.57
2017-10-17T23:25:21.171Z,9.02
2017-10-17T23:27:48.617Z,9.75
2017-10-17T23:30:16.064Z,9.70
2017-10-17T23:32:43.525Z,9.70
2017-10-17T23:35:11.005Z,9.45
2017-10-17T23:37:38.461Z,8.57
2017-10-17T23:40:05.990Z,9.02
2017-10-17T23:42:33.461Z,8.65
2017-10-17T23:45:00.945Z,9.35
2017-10-17T23:47:28.462Z,8.70
2017-10-17T23:49:55.907Z,9.05
2017-10-17T23:52:23.372Z,7.90
2017-10-17T23:54:50.835Z,8.75
2017-10-17T23:57:18.338Z,8.95
2017-10-17T23:59:45.957Z,9.18
